createdAt,value
2023-01-10T00:00:09.109Z,5.65
2023-01-10T00:05:10.958Z,5.60
2023-01-10T00:10:12.822Z,5.54
2023-01-10T00:15:20.568Z,5.53
2023-01-10T00:20:22.363Z,5.54
2023-01-10T00:25:24.886Z,5.55
2023-01-10T00:30:26.640Z,5.48
2023-01-10T00:35:29.296Z,5.37
2023-01-10T00:40:34.595Z,5.29
2023-01-10T00:45:36.586Z,5.33
2023-01-10T00:50:38.990Z,5.34
2023-01-10T00:55:40.977Z,5.30
2023-01-10T01:00:49.502Z,5.22
2023-01-10T01:05:52.403Z,5.15
2023-01-10T01:10:54.267Z,5.11
2023-01-10T01:15:59.652Z,5.09
2023-01-10T01:21:03.680Z,5.07
2023-01-10T01:26:06.570Z,5.05
2023-01-10T01:31:10.298Z,5.07
2023-01-10T01:36:13.640Z,5.07
2023-01-10T01:41:33.862Z,5.04
2023-01-10T01:46:39.130Z,5.02
2023-01-10T01:51:41.502Z,5.05
2023-01-10T01:57:07.158Z,5.02
2023-01-10T02:02:16.288Z,4.92
2023-01-10T02:07:19.028Z,4.87
2023-01-10T02:12:20.737Z,4.88
2023-01-10T02:17:22.416Z,4.91
2023-01-10T02:22:42.691Z,4.87
2023-01-10T02:28:03.838Z,4.84
2023-01-10T02:33:22.722Z,4.80
2023-01-10T02:39:08.285Z,4.79
2023-01-10T02:44:31.684Z,4.85
2023-01-10T02:49:44.958Z,4.88
2023-01-10T02:54:49.179Z,4.94
2023-01-10T02:59:59.313Z,5.03
2023-01-10T03:05:15.235Z,5.03
2023-01-10T03:10:27.544Z,5.03
2023-01-10T03:15:35.273Z,5.14
2023-01-10T03:20:40.317Z,5.24
2023-01-10T03:25:44.721Z,5.29
2023-01-10T03:30:52.473Z,5.29
2023-01-10T03:36:11.253Z,5.31
2023-01-10T03:41:28.390Z,5.37
2023-01-10T03:46:46.676Z,5.32
2023-01-10T03:51:49.403Z,5.27
2023-01-10T03:56:52.103Z,5.21
2023-01-10T04:01:55.477Z,5.14
2023-01-10T04:06:57.252Z,5.19
2023-01-10T04:11:58.979Z,5.18
2023-01-10T04:17:00.751Z,5.11
2023-01-10T04:22:02.541Z,5.05
2023-01-10T04:27:05.005Z,4.93
2023-01-10T04:32:06.732Z,4.78
2023-01-10T04:37:08.472Z,4.66
2023-01-10T04:42:10.163Z,4.61
2023-01-10T04:47:11.960Z,4.57
2023-01-10T04:52:13.738Z,4.48
2023-01-10T04:57:15.511Z,4.43
2023-01-10T05:02:17.389Z,4.44
2023-01-10T05:07:19.281Z,4.46
2023-01-10T05:12:20.999Z,4.46
2023-01-10T05:17:22.769Z,4.42
2023-01-10T05:22:25.140Z,4.35
2023-01-10T05:27:26.853Z,4.32
2023-01-10T05:32:29.720Z,4.32
2023-01-10T05:37:31.587Z,4.33
2023-01-10T05:42:33.298Z,4.39
2023-01-10T05:47:35.133Z,4.38
2023-01-10T05:52:37.036Z,4.42
2023-01-10T05:57:38.770Z,4.44
2023-01-10T06:02:40.682Z,4.43
2023-01-10T06:07:42.561Z,4.47
2023-01-10T06:12:44.270Z,4.54
2023-01-10T06:17:46.198Z,4.68
2023-01-10T06:22:48.123Z,4.72
2023-01-10T06:27:49.892Z,4.71
2023-01-10T06:32:51.704Z,4.75
2023-01-10T06:37:53.415Z,4.77
2023-01-10T06:42:55.183Z,4.78
2023-01-10T06:47:57.290Z,4.62
2023-01-10T06:53:01.380Z,4.73
2023-01-10T06:58:04.637Z,4.72
2023-01-10T07:03:06.363Z,4.77
2023-01-10T07:08:08.189Z,4.78
2023-01-10T07:13:10.467Z,4.79
2023-01-10T07:18:12.912Z,4.78
2023-01-10T07:23:14.688Z,4.74
2023-01-10T07:28:16.643Z,4.64
2023-01-10T07:33:18.363Z,4.57
2023-01-10T07:38:20.168Z,4.52
2023-01-10T07:43:22.164Z,4.49
2023-01-10T07:48:24.022Z,4.45
2023-01-10T07:53:27.157Z,4.42
2023-01-10T07:58:29.625Z,4.44
2023-01-10T08:03:33.122Z,4.51
2023-01-10T08:08:35.084Z,4.51
2023-01-10T08:13:36.878Z,4.46
2023-01-10T08:18:45.305Z,4.51
2023-01-10T08:23:47.081Z,4.53
2023-01-10T08:28:49.002Z,4.58
2023-01-10T08:33:50.685Z,4.62
2023-01-10T08:38:55.634Z,4.43
2023-01-10T08:43:57.351Z,4.55
2023-01-10T08:48:59.057Z,4.53
2023-01-10T08:54:00.803Z,4.51
2023-01-10T08:59:02.558Z,4.53
2023-01-10T09:04:05.314Z,4.57
2023-01-10T09:09:07.097Z,4.58
2023-01-10T09:14:08.869Z,4.57
2023-01-10T09:19:10.849Z,4.58
2023-01-10T09:24:13.076Z,4.57
2023-01-10T09:29:14.845Z,4.36
2023-01-10T09:34:16.614Z,4.52
2023-01-10T09:39:18.357Z,4.56
2023-01-10T09:44:38.378Z,4.54
2023-01-10T09:50:12.403Z,4.54
2023-01-10T09:55:19.873Z,4.53
2023-01-10T10:00:28.307Z,4.52
2023-01-10T10:05:30.308Z,4.50
2023-01-10T10:10:36.537Z,4.44
2023-01-10T10:16:05.503Z,4.50
2023-01-10T10:21:23.339Z,4.47
2023-01-10T10:26:25.158Z,4.52
2023-01-10T10:31:26.839Z,4.58
2023-01-10T10:36:55.533Z,4.53
2023-01-10T10:41:58.007Z,4.62
2023-01-10T10:47:00.325Z,4.60
2023-01-10T10:52:12.455Z,4.55
2023-01-10T10:57:14.419Z,4.58
2023-01-10T11:02:30.047Z,4.52
2023-01-10T11:07:35.059Z,4.52
2023-01-10T11:12:45.256Z,4.40
2023-01-10T11:18:05.579Z,4.34
2023-01-10T11:23:07.459Z,4.42
2023-01-10T11:28:18.447Z,4.44
2023-01-10T11:33:26.935Z,4.43
2023-01-10T11:38:30.145Z,4.45
2023-01-10T11:43:40.038Z,4.43
2023-01-10T11:49:05.787Z,4.46
2023-01-10T11:54:17.584Z,4.47
2023-01-10T11:59:19.419Z,4.44
2023-01-10T12:04:22.817Z,4.49
2023-01-10T12:09:34.140Z,4.61
2023-01-10T12:14:36.078Z,4.61
2023-01-10T12:19:37.838Z,4.57
2023-01-10T12:24:44.058Z,4.53
2023-01-10T12:29:59.844Z,4.50
2023-01-10T12:35:06.269Z,4.52
2023-01-10T12:40:23.645Z,4.52
2023-01-10T12:45:33.536Z,4.63
2023-01-10T12:50:40.427Z,4.75
2023-01-10T12:55:44.867Z,4.77
2023-01-10T13:00:56.998Z,4.77
2023-01-10T13:06:00.743Z,4.80
2023-01-10T13:11:04.195Z,4.74
2023-01-10T13:16:23.995Z,4.64
2023-01-10T13:21:25.956Z,4.60
2023-01-10T13:26:48.413Z,4.58
2023-01-10T13:31:57.166Z,4.63
2023-01-10T13:37:13.548Z,4.63
2023-01-10T13:42:49.273Z,4.61
2023-01-10T13:47:58.599Z,4.66
2023-01-10T13:53:04.372Z,4.60
2023-01-10T13:58:12.049Z,4.55
2023-01-10T14:03:37.696Z,4.51
2023-01-10T14:08:41.078Z,4.46
2023-01-10T14:13:50.665Z,4.48
2023-01-10T14:18:52.416Z,4.43
2023-01-10T14:23:56.193Z,4.43
2023-01-10T14:29:07.360Z,4.43
2023-01-10T14:34:14.637Z,4.44
2023-01-10T14:39:16.863Z,4.44
2023-01-10T14:44:22.596Z,4.42
2023-01-10T14:49:30.523Z,4.39
2023-01-10T14:54:32.267Z,4.39
2023-01-10T14:59:36.243Z,4.36
2023-01-10T15:04:52.742Z,4.37
2023-01-10T15:10:02.253Z,4.36
2023-01-10T15:15:15.438Z,4.39
2023-01-10T15:20:20.382Z,4.37
2023-01-10T15:25:37.867Z,4.37
2023-01-10T15:30:41.568Z,4.39
2023-01-10T15:35:43.866Z,4.37
2023-01-10T15:40:46.216Z,4.37
2023-01-10T15:45:49.176Z,4.16
2023-01-10T15:51:12.382Z,4.32
2023-01-10T15:56:19.172Z,4.33
2023-01-10T16:01:21.144Z,4.29
2023-01-10T16:06:35.662Z,4.22
2023-01-10T16:11:56.339Z,4.20
2023-01-10T16:17:07.260Z,4.20
2023-01-10T16:22:17.875Z,4.18
2023-01-10T16:27:19.606Z,4.17
2023-01-10T16:32:21.395Z,4.07
2023-01-10T16:37:43.386Z,4.00
2023-01-10T16:43:03.909Z,3.95
2023-01-10T16:48:06.469Z,3.93
2023-01-10T16:53:12.678Z,3.88
2023-01-10T16:58:15.735Z,3.83
2023-01-10T17:03:21.955Z,3.80
2023-01-10T17:08:24.720Z,3.77
2023-01-10T17:13:33.282Z,3.76
2023-01-10T17:18:36.157Z,3.75
2023-01-10T17:23:38.677Z,3.78
2023-01-10T17:28:41.298Z,3.81
2023-01-10T17:33:43.104Z,3.84
2023-01-10T17:38:44.965Z,3.86
2023-01-10T17:43:46.685Z,3.89
2023-01-10T17:48:48.440Z,3.90
2023-01-10T17:53:51.143Z,3.86
2023-01-10T17:58:53.755Z,3.86
2023-01-10T18:03:55.690Z,3.93
2023-01-10T18:09:00.004Z,4.00
2023-01-10T18:14:21.807Z,4.09
2023-01-10T18:19:23.898Z,4.18
2023-01-10T18:24:25.579Z,4.24
2023-01-10T18:29:27.222Z,4.40
2023-01-10T18:34:29.035Z,4.52
2023-01-10T18:39:30.889Z,4.55
2023-01-10T18:44:32.769Z,4.53
2023-01-10T18:49:35.162Z,4.51
2023-01-10T18:54:37.121Z,4.53
2023-01-10T18:59:39.803Z,4.49
2023-01-10T19:04:41.825Z,4.39
2023-01-10T19:09:43.708Z,4.28
2023-01-10T19:14:45.685Z,4.21
2023-01-10T19:19:48.340Z,4.19
2023-01-10T19:24:50.569Z,4.21
2023-01-10T19:29:52.423Z,4.22
2023-01-10T19:34:54.535Z,4.19
2023-01-10T19:39:56.520Z,4.20
2023-01-10T19:44:58.540Z,4.21
2023-01-10T19:50:00.585Z,4.24
2023-01-10T19:55:02.580Z,4.26
2023-01-10T20:00:05.707Z,4.22
2023-01-10T20:05:15.641Z,4.26
2023-01-10T20:10:18.383Z,4.35
2023-01-10T20:15:20.203Z,4.43
2023-01-10T20:20:23.545Z,4.41
2023-01-10T20:25:25.520Z,4.39
2023-01-10T20:30:27.497Z,4.43
2023-01-10T20:35:29.377Z,4.47
2023-01-10T20:40:31.099Z,4.38
2023-01-10T20:45:34.449Z,4.30
2023-01-10T20:50:36.099Z,4.24
2023-01-10T20:55:38.586Z,4.18
2023-01-10T21:00:40.519Z,4.12
2023-01-10T21:05:49.012Z,4.10
2023-01-10T21:10:51.540Z,4.14
2023-01-10T21:15:55.514Z,4.18
2023-01-10T21:20:58.461Z,4.11
2023-01-10T21:26:08.784Z,3.94
2023-01-10T21:31:20.694Z,3.74
2023-01-10T21:36:22.616Z,3.63
2023-01-10T21:41:43.112Z,3.50
2023-01-10T21:46:46.868Z,3.59
2023-01-10T21:51:48.824Z,3.55
2023-01-10T21:56:50.552Z,3.57
2023-01-10T22:01:52.424Z,3.57
2023-01-10T22:06:54.403Z,3.58
2023-01-10T22:11:56.329Z,3.55
2023-01-10T22:17:04.451Z,3.55
2023-01-10T22:22:07.419Z,3.59
2023-01-10T22:27:09.101Z,3.65
2023-01-10T22:32:11.142Z,3.79
2023-01-10T22:37:13.081Z,3.85
2023-01-10T22:42:14.940Z,3.86
2023-01-10T22:47:16.797Z,3.90
2023-01-10T22:52:18.548Z,3.97
2023-01-10T22:57:20.240Z,4.01
2023-01-10T23:02:22.018Z,3.92
2023-01-10T23:07:24.183Z,3.76
2023-01-10T23:12:26.164Z,3.71
2023-01-10T23:17:27.991Z,3.68
2023-01-10T23:22:30.021Z,3.64
2023-01-10T23:27:31.698Z,3.60
2023-01-10T23:32:34.200Z,3.54
2023-01-10T23:37:36.267Z,3.53
2023-01-10T23:42:37.971Z,3.54
2023-01-10T23:47:39.787Z,3.59
2023-01-10T23:52:43.795Z,3.61
2023-01-10T23:57:45.495Z,3.65
